sensor_id;sensor_type;location;lat;lon;timestamp;P1;durP1;ratioP1;P2;durP2;ratioP2
53036;SDS011;38924;52.134;4.666;2023-11-21T00:01:18;28.98;;;11.02;;
53036;SDS011;38924;52.134;4.666;2023-11-21T00:03:43;29.65;;;11.45;;
53036;SDS011;38924;52.134;4.666;2023-11-21T00:06:09;20.13;;;9.30;;
53036;SDS011;38924;52.134;4.666;2023-11-21T00:08:35;27.05;;;9.32;;
53036;SDS011;38924;52.134;4.666;2023-11-21T00:11:01;24.08;;;9.73;;
53036;SDS011;38924;52.134;4.666;2023-11-21T00:13:27;21.85;;;9.43;;
53036;SDS011;38924;52.134;4.666;2023-11-21T00:15:52;23.27;;;8.32;;
53036;SDS011;38924;52.134;4.666;2023-11-21T00:18:18;24.58;;;8.73;;
53036;SDS011;38924;52.134;4.666;2023-11-21T00:20:44;16.08;;;7.80;;
53036;SDS011;38924;52.134;4.666;2023-11-21T00:23:10;20.00;;;7.90;;
53036;SDS011;38924;52.134;4.666;2023-11-21T00:25:36;23.23;;;8.10;;
53036;SDS011;38924;52.134;4.666;2023-11-21T00:28:01;20.30;;;8.23;;
53036;SDS011;38924;52.134;4.666;2023-11-21T00:30:28;17.65;;;7.63;;
53036;SDS011;38924;52.134;4.666;2023-11-21T00:32:55;18.90;;;7.50;;
53036;SDS011;38924;52.134;4.666;2023-11-21T00:35:21;19.15;;;7.95;;
53036;SDS011;38924;52.134;4.666;2023-11-21T00:37:47;23.73;;;7.15;;
53036;SDS011;38924;52.134;4.666;2023-11-21T00:40:36;19.02;;;7.53;;
53036;SDS011;38924;52.134;4.666;2023-11-21T00:43:03;16.63;;;7.47;;
53036;SDS011;38924;52.134;4.666;2023-11-21T00:45:32;18.27;;;8.27;;
53036;SDS011;38924;52.134;4.666;2023-11-21T00:47:57;22.35;;;8.05;;
53036;SDS011;38924;52.134;4.666;2023-11-21T00:50:23;22.23;;;7.97;;
53036;SDS011;38924;52.134;4.666;2023-11-21T00:52:50;14.57;;;6.75;;
53036;SDS011;38924;52.134;4.666;2023-11-21T00:55:17;21.13;;;8.88;;
53036;SDS011;38924;52.134;4.666;2023-11-21T00:57:43;19.88;;;8.27;;
53036;SDS011;38924;52.134;4.666;2023-11-21T01:00:09;19.60;;;7.45;;
53036;SDS011;38924;52.134;4.666;2023-11-21T01:02:43;20.63;;;8.82;;
53036;SDS011;38924;52.134;4.666;2023-11-21T01:05:10;19.63;;;8.40;;
53036;SDS011;38924;52.134;4.666;2023-11-21T01:07:36;21.50;;;7.90;;
53036;SDS011;38924;52.134;4.666;2023-11-21T01:10:02;25.30;;;7.95;;
53036;SDS011;38924;52.134;4.666;2023-11-21T01:12:28;24.20;;;9.20;;
53036;SDS011;38924;52.134;4.666;2023-11-21T01:14:57;17.30;;;8.93;;
53036;SDS011;38924;52.134;4.666;2023-11-21T01:17:25;19.98;;;7.13;;
53036;SDS011;38924;52.134;4.666;2023-11-21T01:19:51;18.60;;;7.70;;
53036;SDS011;38924;52.134;4.666;2023-11-21T01:22:17;18.17;;;7.70;;
53036;SDS011;38924;52.134;4.666;2023-11-21T01:24:45;21.55;;;7.07;;
53036;SDS011;38924;52.134;4.666;2023-11-21T01:27:11;13.55;;;8.02;;
53036;SDS011;38924;52.134;4.666;2023-11-21T01:29:37;23.73;;;10.32;;
53036;SDS011;38924;52.134;4.666;2023-11-21T01:32:02;14.52;;;7.75;;
53036;SDS011;38924;52.134;4.666;2023-11-21T01:34:29;18.45;;;7.50;;
53036;SDS011;38924;52.134;4.666;2023-11-21T01:36:55;17.25;;;6.40;;
53036;SDS011;38924;52.134;4.666;2023-11-21T01:39:20;14.90;;;7.30;;
53036;SDS011;38924;52.134;4.666;2023-11-21T01:41:49;15.70;;;6.80;;
53036;SDS011;38924;52.134;4.666;2023-11-21T01:44:15;16.75;;;6.88;;
53036;SDS011;38924;52.134;4.666;2023-11-21T01:46:42;17.05;;;7.15;;
53036;SDS011;38924;52.134;4.666;2023-11-21T01:49:08;16.83;;;6.30;;
53036;SDS011;38924;52.134;4.666;2023-11-21T01:51:35;22.80;;;6.18;;
53036;SDS011;38924;52.134;4.666;2023-11-21T01:54:02;14.93;;;6.70;;
53036;SDS011;38924;52.134;4.666;2023-11-21T01:56:30;14.52;;;5.60;;
53036;SDS011;38924;52.134;4.666;2023-11-21T01:58:57;17.98;;;6.00;;
53036;SDS011;38924;52.134;4.666;2023-11-21T02:01:23;16.77;;;7.22;;
53036;SDS011;38924;52.134;4.666;2023-11-21T02:03:48;16.77;;;6.32;;
53036;SDS011;38924;52.134;4.666;2023-11-21T02:06:14;16.70;;;6.63;;
53036;SDS011;38924;52.134;4.666;2023-11-21T02:08:40;17.35;;;6.15;;
53036;SDS011;38924;52.134;4.666;2023-11-21T02:11:07;21.73;;;8.43;;
53036;SDS011;38924;52.134;4.666;2023-11-21T02:13:37;26.52;;;8.90;;
53036;SDS011;38924;52.134;4.666;2023-11-21T02:16:03;17.42;;;7.40;;
53036;SDS011;38924;52.134;4.666;2023-11-21T02:18:30;20.63;;;7.45;;
53036;SDS011;38924;52.134;4.666;2023-11-21T02:20:56;19.85;;;7.70;;
53036;SDS011;38924;52.134;4.666;2023-11-21T02:23:22;25.95;;;7.97;;
53036;SDS011;38924;52.134;4.666;2023-11-21T02:25:48;28.95;;;9.82;;
53036;SDS011;38924;52.134;4.666;2023-11-21T02:28:15;14.05;;;6.32;;
53036;SDS011;38924;52.134;4.666;2023-11-21T02:30:52;20.55;;;7.68;;
53036;SDS011;38924;52.134;4.666;2023-11-21T02:33:22;20.30;;;7.88;;
53036;SDS011;38924;52.134;4.666;2023-11-21T02:35:47;23.73;;;7.70;;
53036;SDS011;38924;52.134;4.666;2023-11-21T02:38:13;21.23;;;8.25;;
53036;SDS011;38924;52.134;4.666;2023-11-21T02:40:39;22.30;;;7.65;;
53036;SDS011;38924;52.134;4.666;2023-11-21T02:43:05;19.23;;;6.85;;
53036;SDS011;38924;52.134;4.666;2023-11-21T02:45:31;19.67;;;7.43;;
53036;SDS011;38924;52.134;4.666;2023-11-21T02:47:57;23.95;;;7.18;;
53036;SDS011;38924;52.134;4.666;2023-11-21T02:50:23;25.13;;;6.93;;
53036;SDS011;38924;52.134;4.666;2023-11-21T02:52:49;14.73;;;5.88;;
53036;SDS011;38924;52.134;4.666;2023-11-21T02:55:15;19.13;;;6.60;;
53036;SDS011;38924;52.134;4.666;2023-11-21T02:57:40;12.52;;;5.38;;
53036;SDS011;38924;52.134;4.666;2023-11-21T03:00:06;14.13;;;5.47;;
53036;SDS011;38924;52.134;4.666;2023-11-21T03:02:41;12.05;;;5.30;;
53036;SDS011;38924;52.134;4.666;2023-11-21T03:05:07;17.58;;;6.22;;
53036;SDS011;38924;52.134;4.666;2023-11-21T03:07:36;17.95;;;5.63;;
53036;SDS011;38924;52.134;4.666;2023-11-21T03:10:02;18.20;;;6.35;;
53036;SDS011;38924;52.134;4.666;2023-11-21T03:12:29;17.58;;;6.20;;
53036;SDS011;38924;52.134;4.666;2023-11-21T03:14:55;17.17;;;6.53;;
53036;SDS011;38924;52.134;4.666;2023-11-21T03:17:22;19.63;;;7.35;;
53036;SDS011;38924;52.134;4.666;2023-11-21T03:19:48;14.70;;;6.28;;
53036;SDS011;38924;52.134;4.666;2023-11-21T03:22:14;14.82;;;6.28;;
53036;SDS011;38924;52.134;4.666;2023-11-21T03:24:40;11.70;;;5.65;;
53036;SDS011;38924;52.134;4.666;2023-11-21T03:27:07;20.55;;;6.72;;
53036;SDS011;38924;52.134;4.666;2023-11-21T03:29:33;15.30;;;5.80;;
53036;SDS011;38924;52.134;4.666;2023-11-21T03:31:59;13.00;;;6.18;;
53036;SDS011;38924;52.134;4.666;2023-11-21T03:34:26;13.85;;;6.88;;
53036;SDS011;38924;52.134;4.666;2023-11-21T03:36:52;19.45;;;7.43;;
53036;SDS011;38924;52.134;4.666;2023-11-21T03:39:21;17.33;;;7.15;;
53036;SDS011;38924;52.134;4.666;2023-11-21T03:41:48;17.23;;;7.40;;
53036;SDS011;38924;52.134;4.666;2023-11-21T03:44:15;16.17;;;6.85;;
53036;SDS011;38924;52.134;4.666;2023-11-21T03:46:41;14.70;;;6.80;;
53036;SDS011;38924;52.134;4.666;2023-11-21T03:49:08;18.25;;;6.78;;
53036;SDS011;38924;52.134;4.666;2023-11-21T03:51:34;18.10;;;6.40;;
53036;SDS011;38924;52.134;4.666;2023-11-21T03:54:01;14.82;;;6.60;;
53036;SDS011;38924;52.134;4.666;2023-11-21T03:56:27;15.00;;;6.65;;
53036;SDS011;38924;52.134;4.666;2023-11-21T03:58:53;12.32;;;6.38;;
53036;SDS011;38924;52.134;4.666;2023-11-21T04:01:20;14.18;;;7.07;;
53036;SDS011;38924;52.134;4.666;2023-11-21T04:03:50;13.93;;;6.43;;
53036;SDS011;38924;52.134;4.666;2023-11-21T04:06:16;14.98;;;6.53;;
53036;SDS011;38924;52.134;4.666;2023-11-21T04:08:45;12.52;;;5.97;;
53036;SDS011;38924;52.134;4.666;2023-11-21T04:11:11;13.70;;;6.43;;
53036;SDS011;38924;52.134;4.666;2023-11-21T04:13:39;15.20;;;6.28;;
53036;SDS011;38924;52.134;4.666;2023-11-21T04:16:06;11.85;;;6.22;;
53036;SDS011;38924;52.134;4.666;2023-11-21T04:18:32;13.85;;;6.60;;
53036;SDS011;38924;52.134;4.666;2023-11-21T04:20:57;14.27;;;5.93;;
53036;SDS011;38924;52.134;4.666;2023-11-21T04:23:23;14.90;;;6.85;;
53036;SDS011;38924;52.134;4.666;2023-11-21T04:25:48;11.45;;;6.35;;
53036;SDS011;38924;52.134;4.666;2023-11-21T04:28:14;14.75;;;7.07;;
53036;SDS011;38924;52.134;4.666;2023-11-21T04:30:40;20.73;;;6.18;;
53036;SDS011;38924;52.134;4.666;2023-11-21T04:33:06;15.18;;;7.28;;
53036;SDS011;38924;52.134;4.666;2023-11-21T04:35:33;12.15;;;7.68;;
53036;SDS011;38924;52.134;4.666;2023-11-21T04:37:58;14.55;;;7.60;;
53036;SDS011;38924;52.134;4.666;2023-11-21T04:40:25;12.35;;;5.95;;
53036;SDS011;38924;52.134;4.666;2023-11-21T04:42:52;10.10;;;5.88;;
53036;SDS011;38924;52.134;4.666;2023-11-21T04:45:18;11.90;;;6.10;;
53036;SDS011;38924;52.134;4.666;2023-11-21T04:47:43;14.40;;;6.65;;
53036;SDS011;38924;52.134;4.666;2023-11-21T04:50:10;11.07;;;6.20;;
53036;SDS011;38924;52.134;4.666;2023-11-21T04:52:36;8.70;;;5.63;;
53036;SDS011;38924;52.134;4.666;2023-11-21T04:55:02;19.33;;;7.68;;
53036;SDS011;38924;52.134;4.666;2023-11-21T04:57:27;9.77;;;5.43;;
53036;SDS011;38924;52.134;4.666;2023-11-21T04:59:54;11.30;;;6.32;;
53036;SDS011;38924;52.134;4.666;2023-11-21T05:02:20;11.35;;;6.40;;
53036;SDS011;38924;52.134;4.666;2023-11-21T05:04:47;10.15;;;5.63;;
53036;SDS011;38924;52.134;4.666;2023-11-21T05:07:13;15.52;;;5.78;;
53036;SDS011;38924;52.134;4.666;2023-11-21T05:09:44;9.43;;;5.35;;
53036;SDS011;38924;52.134;4.666;2023-11-21T05:12:12;16.98;;;7.30;;
53036;SDS011;38924;52.134;4.666;2023-11-21T05:14:37;10.75;;;5.63;;
53036;SDS011;38924;52.134;4.666;2023-11-21T05:17:03;10.88;;;6.07;;
53036;SDS011;38924;52.134;4.666;2023-11-21T05:19:29;8.57;;;5.45;;
53036;SDS011;38924;52.134;4.666;2023-11-21T05:21:55;11.98;;;7.90;;
53036;SDS011;38924;52.134;4.666;2023-11-21T05:24:21;12.80;;;7.97;;
53036;SDS011;38924;52.134;4.666;2023-11-21T05:26:46;10.75;;;7.13;;
53036;SDS011;38924;52.134;4.666;2023-11-21T05:29:12;9.52;;;5.75;;
53036;SDS011;38924;52.134;4.666;2023-11-21T05:31:38;7.80;;;4.90;;
53036;SDS011;38924;52.134;4.666;2023-11-21T05:34:03;8.80;;;4.20;;
53036;SDS011;38924;52.134;4.666;2023-11-21T05:36:30;8.13;;;5.30;;
53036;SDS011;38924;52.134;4.666;2023-11-21T05:38:56;5.60;;;3.75;;
53036;SDS011;38924;52.134;4.666;2023-11-21T05:41:22;7.28;;;4.03;;
53036;SDS011;38924;52.134;4.666;2023-11-21T05:43:48;6.50;;;4.40;;
53036;SDS011;38924;52.134;4.666;2023-11-21T05:46:14;7.15;;;4.05;;
53036;SDS011;38924;52.134;4.666;2023-11-21T05:48:40;6.05;;;4.25;;
53036;SDS011;38924;52.134;4.666;2023-11-21T05:51:06;7.10;;;4.85;;
53036;SDS011;38924;52.134;4.666;2023-11-21T05:53:31;9.38;;;5.28;;
53036;SDS011;38924;52.134;4.666;2023-11-21T05:55:57;7.63;;;4.07;;
53036;SDS011;38924;52.134;4.666;2023-11-21T05:58:23;5.70;;;3.38;;
53036;SDS011;38924;52.134;4.666;2023-11-21T06:00:49;7.93;;;4.03;;
53036;SDS011;38924;52.134;4.666;2023-11-21T06:03:15;4.57;;;2.75;;
53036;SDS011;38924;52.134;4.666;2023-11-21T06:05:40;10.27;;;3.75;;
53036;SDS011;38924;52.134;4.666;2023-11-21T06:08:06;7.10;;;4.03;;
53036;SDS011;38924;52.134;4.666;2023-11-21T06:10:32;5.43;;;3.15;;
53036;SDS011;38924;52.134;4.666;2023-11-21T06:12:58;9.57;;;3.35;;
53036;SDS011;38924;52.134;4.666;2023-11-21T06:15:24;10.30;;;4.60;;
53036;SDS011;38924;52.134;4.666;2023-11-21T06:17:50;4.13;;;3.22;;
53036;SDS011;38924;52.134;4.666;2023-11-21T06:20:18;5.82;;;3.60;;
53036;SDS011;38924;52.134;4.666;2023-11-21T06:22:44;8.25;;;3.63;;
53036;SDS011;38924;52.134;4.666;2023-11-21T06:25:11;9.93;;;3.40;;
53036;SDS011;38924;52.134;4.666;2023-11-21T06:27:39;11.10;;;3.20;;
53036;SDS011;38924;52.134;4.666;2023-11-21T06:30:05;7.25;;;3.28;;
53036;SDS011;38924;52.134;4.666;2023-11-21T06:32:32;7.75;;;3.97;;
53036;SDS011;38924;52.134;4.666;2023-11-21T06:34:58;15.15;;;4.22;;
53036;SDS011;38924;52.134;4.666;2023-11-21T06:37:26;14.18;;;5.18;;
53036;SDS011;38924;52.134;4.666;2023-11-21T06:39:52;13.18;;;4.95;;
53036;SDS011;38924;52.134;4.666;2023-11-21T06:42:18;9.13;;;4.95;;
53036;SDS011;38924;52.134;4.666;2023-11-21T06:44:47;11.00;;;4.53;;
53036;SDS011;38924;52.134;4.666;2023-11-21T06:49:49;18.15;;;4.90;;
53036;SDS011;38924;52.134;4.666;2023-11-21T06:52:14;18.27;;;5.45;;
53036;SDS011;38924;52.134;4.666;2023-11-21T06:54:40;18.13;;;5.15;;
53036;SDS011;38924;52.134;4.666;2023-11-21T06:57:06;11.00;;;4.60;;
53036;SDS011;38924;52.134;4.666;2023-11-21T06:59:32;16.50;;;5.07;;
53036;SDS011;38924;52.134;4.666;2023-11-21T07:01:57;21.38;;;5.90;;
53036;SDS011;38924;52.134;4.666;2023-11-21T07:04:23;17.98;;;4.30;;
53036;SDS011;38924;52.134;4.666;2023-11-21T07:06:51;14.85;;;4.93;;
53036;SDS011;38924;52.134;4.666;2023-11-21T07:09:17;11.73;;;4.93;;
53036;SDS011;38924;52.134;4.666;2023-11-21T07:11:43;20.90;;;4.72;;
53036;SDS011;38924;52.134;4.666;2023-11-21T07:14:08;8.88;;;4.13;;
53036;SDS011;38924;52.134;4.666;2023-11-21T07:16:37;10.00;;;4.15;;
53036;SDS011;38924;52.134;4.666;2023-11-21T07:19:03;16.08;;;4.90;;
53036;SDS011;38924;52.134;4.666;2023-11-21T07:21:31;7.70;;;3.50;;
53036;SDS011;38924;52.134;4.666;2023-11-21T07:23:57;10.55;;;4.65;;
53036;SDS011;38924;52.134;4.666;2023-11-21T07:26:23;8.88;;;4.25;;
53036;SDS011;38924;52.134;4.666;2023-11-21T07:28:52;12.70;;;5.50;;
53036;SDS011;38924;52.134;4.666;2023-11-21T07:31:18;9.13;;;4.00;;
53036;SDS011;38924;52.134;4.666;2023-11-21T07:33:47;9.88;;;4.00;;
53036;SDS011;38924;52.134;4.666;2023-11-21T07:36:13;9.25;;;4.20;;
53036;SDS011;38924;52.134;4.666;2023-11-21T07:38:39;10.38;;;5.25;;
53036;SDS011;38924;52.134;4.666;2023-11-21T07:41:05;9.60;;;4.68;;
53036;SDS011;38924;52.134;4.666;2023-11-21T07:43:34;8.68;;;4.10;;
53036;SDS011;38924;52.134;4.666;2023-11-21T07:46:01;11.43;;;5.13;;
53036;SDS011;38924;52.134;4.666;2023-11-21T07:48:28;10.07;;;5.05;;
53036;SDS011;38924;52.134;4.666;2023-11-21T07:50:54;9.18;;;4.47;;
53036;SDS011;38924;52.134;4.666;2023-11-21T07:53:19;10.13;;;4.93;;
53036;SDS011;38924;52.134;4.666;2023-11-21T07:55:45;15.45;;;5.50;;
53036;SDS011;38924;52.134;4.666;2023-11-21T07:58:12;10.73;;;4.72;;
53036;SDS011;38924;52.134;4.666;2023-11-21T08:00:38;11.05;;;5.30;;
53036;SDS011;38924;52.134;4.666;2023-11-21T08:03:05;11.73;;;4.65;;
53036;SDS011;38924;52.134;4.666;2023-11-21T08:05:31;17.17;;;5.57;;
53036;SDS011;38924;52.134;4.666;2023-11-21T08:07:57;13.80;;;5.85;;
53036;SDS011;38924;52.134;4.666;2023-11-21T08:10:22;11.40;;;5.35;;
53036;SDS011;38924;52.134;4.666;2023-11-21T08:12:48;15.25;;;5.10;;
53036;SDS011;38924;52.134;4.666;2023-11-21T08:15:16;17.35;;;5.60;;
53036;SDS011;38924;52.134;4.666;2023-11-21T08:17:42;13.57;;;5.47;;
53036;SDS011;38924;52.134;4.666;2023-11-21T08:20:08;14.43;;;5.43;;
53036;SDS011;38924;52.134;4.666;2023-11-21T08:22:36;16.25;;;6.03;;
53036;SDS011;38924;52.134;4.666;2023-11-21T08:25:02;17.08;;;6.20;;
53036;SDS011;38924;52.134;4.666;2023-11-21T08:27:29;14.32;;;7.38;;
53036;SDS011;38924;52.134;4.666;2023-11-21T08:29:55;17.83;;;6.38;;
53036;SDS011;38924;52.134;4.666;2023-11-21T08:32:22;17.05;;;6.78;;
53036;SDS011;38924;52.134;4.666;2023-11-21T08:34:48;17.38;;;7.38;;
53036;SDS011;38924;52.134;4.666;2023-11-21T08:37:16;21.70;;;7.70;;
53036;SDS011;38924;52.134;4.666;2023-11-21T08:39:44;13.52;;;7.65;;
53036;SDS011;38924;52.134;4.666;2023-11-21T08:42:10;18.70;;;8.10;;
53036;SDS011;38924;52.134;4.666;2023-11-21T08:44:36;18.52;;;8.00;;
53036;SDS011;38924;52.134;4.666;2023-11-21T08:47:01;13.32;;;6.90;;
53036;SDS011;38924;52.134;4.666;2023-11-21T08:49:27;12.27;;;6.70;;
53036;SDS011;38924;52.134;4.666;2023-11-21T08:51:54;12.55;;;8.02;;
53036;SDS011;38924;52.134;4.666;2023-11-21T08:54:27;15.30;;;8.00;;
53036;SDS011;38924;52.134;4.666;2023-11-21T08:56:54;17.52;;;9.38;;
53036;SDS011;38924;52.134;4.666;2023-11-21T08:59:20;13.30;;;8.38;;
53036;SDS011;38924;52.134;4.666;2023-11-21T09:01:46;20.52;;;10.02;;
53036;SDS011;38924;52.134;4.666;2023-11-21T09:04:12;14.80;;;9.50;;
53036;SDS011;38924;52.134;4.666;2023-11-21T09:06:39;12.43;;;9.10;;
53036;SDS011;38924;52.134;4.666;2023-11-21T09:09:05;17.48;;;9.73;;
53036;SDS011;38924;52.134;4.666;2023-11-21T09:11:34;12.73;;;9.07;;
53036;SDS011;38924;52.134;4.666;2023-11-21T09:14:01;17.40;;;9.93;;
53036;SDS011;38924;52.134;4.666;2023-11-21T09:16:26;14.52;;;9.25;;
53036;SDS011;38924;52.134;4.666;2023-11-21T09:18:52;17.08;;;11.35;;
53036;SDS011;38924;52.134;4.666;2023-11-21T09:21:18;17.92;;;12.50;;
53036;SDS011;38924;52.134;4.666;2023-11-21T09:23:44;20.02;;;11.95;;
53036;SDS011;38924;52.134;4.666;2023-11-21T09:26:10;18.20;;;10.60;;
53036;SDS011;38924;52.134;4.666;2023-11-21T09:28:35;15.98;;;11.13;;
53036;SDS011;38924;52.134;4.666;2023-11-21T09:31:03;16.83;;;10.07;;
53036;SDS011;38924;52.134;4.666;2023-11-21T09:33:34;17.20;;;9.55;;
53036;SDS011;38924;52.134;4.666;2023-11-21T09:35:59;14.05;;;8.70;;
53036;SDS011;38924;52.134;4.666;2023-11-21T09:38:25;12.68;;;8.23;;
53036;SDS011;38924;52.134;4.666;2023-11-21T09:40:51;9.70;;;6.20;;
53036;SDS011;38924;52.134;4.666;2023-11-21T09:43:19;16.35;;;6.78;;
53036;SDS011;38924;52.134;4.666;2023-11-21T09:45:48;11.50;;;6.90;;
53036;SDS011;38924;52.134;4.666;2023-11-21T09:48:16;11.88;;;7.10;;
53036;SDS011;38924;52.134;4.666;2023-11-21T09:50:42;11.30;;;6.75;;
53036;SDS011;38924;52.134;4.666;2023-11-21T09:55:36;10.45;;;6.35;;
53036;SDS011;38924;52.134;4.666;2023-11-21T09:58:05;9.23;;;6.70;;
53036;SDS011;38924;52.134;4.666;2023-11-21T10:00:33;9.32;;;6.55;;
53036;SDS011;38924;52.134;4.666;2023-11-21T10:02:59;10.55;;;7.28;;
53036;SDS011;38924;52.134;4.666;2023-11-21T10:05:25;12.38;;;7.00;;
53036;SDS011;38924;52.134;4.666;2023-11-21T10:07:50;15.82;;;8.95;;
53036;SDS011;38924;52.134;4.666;2023-11-21T10:10:18;11.48;;;7.20;;
53036;SDS011;38924;52.134;4.666;2023-11-21T10:12:45;17.42;;;8.02;;
53036;SDS011;38924;52.134;4.666;2023-11-21T10:15:12;16.08;;;9.40;;
53036;SDS011;38924;52.134;4.666;2023-11-21T10:17:41;14.48;;;9.30;;
53036;SDS011;38924;52.134;4.666;2023-11-21T10:20:13;13.60;;;8.45;;
53036;SDS011;38924;52.134;4.666;2023-11-21T10:22:42;18.60;;;9.05;;
53036;SDS011;38924;52.134;4.666;2023-11-21T10:25:11;13.40;;;7.97;;
53036;SDS011;38924;52.134;4.666;2023-11-21T10:27:40;16.13;;;8.63;;
53036;SDS011;38924;52.134;4.666;2023-11-21T10:30:07;13.63;;;8.23;;
53036;SDS011;38924;52.134;4.666;2023-11-21T10:32:33;14.32;;;9.75;;
53036;SDS011;38924;52.134;4.666;2023-11-21T10:34:59;14.55;;;9.82;;
53036;SDS011;38924;52.134;4.666;2023-11-21T10:37:26;16.50;;;11.10;;
53036;SDS011;38924;52.134;4.666;2023-11-21T10:39:59;16.65;;;11.23;;
53036;SDS011;38924;52.134;4.666;2023-11-21T10:42:25;18.25;;;11.82;;
53036;SDS011;38924;52.134;4.666;2023-11-21T10:44:53;16.85;;;11.63;;
53036;SDS011;38924;52.134;4.666;2023-11-21T10:47:19;20.60;;;13.18;;
53036;SDS011;38924;52.134;4.666;2023-11-21T10:49:45;20.98;;;12.43;;
53036;SDS011;38924;52.134;4.666;2023-11-21T10:52:13;18.42;;;12.60;;
53036;SDS011;38924;52.134;4.666;2023-11-21T10:54:43;21.90;;;12.98;;
53036;SDS011;38924;52.134;4.666;2023-11-21T10:57:09;18.13;;;12.05;;
53036;SDS011;38924;52.134;4.666;2023-11-21T10:59:36;23.70;;;13.02;;
53036;SDS011;38924;52.134;4.666;2023-11-21T11:02:06;19.92;;;10.95;;
53036;SDS011;38924;52.134;4.666;2023-11-21T11:04:35;24.02;;;11.68;;
53036;SDS011;38924;52.134;4.666;2023-11-21T11:07:03;16.52;;;11.02;;
53036;SDS011;38924;52.134;4.666;2023-11-21T11:09:30;21.48;;;11.32;;
53036;SDS011;38924;52.134;4.666;2023-11-21T11:11:59;15.48;;;10.35;;
53036;SDS011;38924;52.134;4.666;2023-11-21T11:14:25;18.63;;;11.50;;
53036;SDS011;38924;52.134;4.666;2023-11-21T11:16:53;20.05;;;10.80;;
53036;SDS011;38924;52.134;4.666;2023-11-21T11:19:19;20.13;;;10.13;;
53036;SDS011;38924;52.134;4.666;2023-11-21T11:27:01;13.13;;;8.20;;
53036;SDS011;38924;52.134;4.666;2023-11-21T11:29:46;14.85;;;9.00;;
53036;SDS011;38924;52.134;4.666;2023-11-21T11:34:48;12.50;;;7.53;;
53036;SDS011;38924;52.134;4.666;2023-11-21T11:37:15;11.65;;;6.53;;
53036;SDS011;38924;52.134;4.666;2023-11-21T11:39:42;10.20;;;6.35;;
53036;SDS011;38924;52.134;4.666;2023-11-21T11:42:12;9.27;;;6.40;;
53036;SDS011;38924;52.134;4.666;2023-11-21T11:49:56;12.35;;;8.02;;
53036;SDS011;38924;52.134;4.666;2023-11-21T11:52:34;12.43;;;7.70;;
53036;SDS011;38924;52.134;4.666;2023-11-21T11:55:01;15.82;;;7.82;;
53036;SDS011;38924;52.134;4.666;2023-11-21T11:57:29;12.27;;;7.70;;
53036;SDS011;38924;52.134;4.666;2023-11-21T12:00:11;12.15;;;7.40;;
53036;SDS011;38924;52.134;4.666;2023-11-21T12:02:38;12.27;;;7.75;;
53036;SDS011;38924;52.134;4.666;2023-11-21T12:05:08;10.57;;;6.63;;
53036;SDS011;38924;52.134;4.666;2023-11-21T12:07:41;12.02;;;8.18;;
53036;SDS011;38924;52.134;4.666;2023-11-21T12:10:07;10.38;;;7.30;;
53036;SDS011;38924;52.134;4.666;2023-11-21T12:12:34;11.13;;;7.85;;
53036;SDS011;38924;52.134;4.666;2023-11-21T12:15:00;10.93;;;7.45;;
53036;SDS011;38924;52.134;4.666;2023-11-21T12:17:25;10.75;;;7.65;;
53036;SDS011;38924;52.134;4.666;2023-11-21T12:19:51;10.10;;;7.68;;
53036;SDS011;38924;52.134;4.666;2023-11-21T12:22:20;13.60;;;8.35;;
53036;SDS011;38924;52.134;4.666;2023-11-21T12:24:49;16.75;;;8.25;;
53036;SDS011;38924;52.134;4.666;2023-11-21T12:27:14;13.82;;;7.40;;
53036;SDS011;38924;52.134;4.666;2023-11-21T12:29:40;10.85;;;7.03;;
53036;SDS011;38924;52.134;4.666;2023-11-21T12:32:08;13.77;;;7.72;;
53036;SDS011;38924;52.134;4.666;2023-11-21T12:34:34;13.10;;;8.80;;
53036;SDS011;38924;52.134;4.666;2023-11-21T12:37:00;11.60;;;7.55;;
53036;SDS011;38924;52.134;4.666;2023-11-21T12:39:26;8.45;;;6.63;;
53036;SDS011;38924;52.134;4.666;2023-11-21T12:41:52;10.35;;;7.60;;
53036;SDS011;38924;52.134;4.666;2023-11-21T12:44:18;8.88;;;6.65;;
53036;SDS011;38924;52.134;4.666;2023-11-21T12:46:43;10.32;;;7.30;;
53036;SDS011;38924;52.134;4.666;2023-11-21T12:49:11;10.85;;;7.30;;
53036;SDS011;38924;52.134;4.666;2023-11-21T12:51:43;11.77;;;7.85;;
53036;SDS011;38924;52.134;4.666;2023-11-21T12:54:10;10.65;;;7.30;;
53036;SDS011;38924;52.134;4.666;2023-11-21T12:56:38;9.32;;;7.05;;
53036;SDS011;38924;52.134;4.666;2023-11-21T12:59:05;11.40;;;7.28;;
53036;SDS011;38924;52.134;4.666;2023-11-21T13:01:30;10.30;;;6.85;;
53036;SDS011;38924;52.134;4.666;2023-11-21T13:03:57;10.45;;;7.43;;
53036;SDS011;38924;52.134;4.666;2023-11-21T13:06:23;10.18;;;6.93;;
53036;SDS011;38924;52.134;4.666;2023-11-21T13:08:52;7.03;;;6.30;;
53036;SDS011;38924;52.134;4.666;2023-11-21T13:11:17;8.98;;;6.15;;
53036;SDS011;38924;52.134;4.666;2023-11-21T13:13:43;9.75;;;7.10;;
53036;SDS011;38924;52.134;4.666;2023-11-21T13:16:09;9.35;;;7.07;;
53036;SDS011;38924;52.134;4.666;2023-11-21T13:18:35;14.15;;;7.45;;
53036;SDS011;38924;52.134;4.666;2023-11-21T13:21:05;9.73;;;6.57;;
53036;SDS011;38924;52.134;4.666;2023-11-21T13:23:42;9.52;;;6.47;;
53036;SDS011;38924;52.134;4.666;2023-11-21T13:26:08;13.25;;;7.53;;
53036;SDS011;38924;52.134;4.666;2023-11-21T13:28:34;10.63;;;7.93;;
53036;SDS011;38924;52.134;4.666;2023-11-21T13:31:01;9.90;;;7.57;;
53036;SDS011;38924;52.134;4.666;2023-11-21T13:33:47;12.73;;;8.45;;
53036;SDS011;38924;52.134;4.666;2023-11-21T13:36:16;16.25;;;8.88;;
53036;SDS011;38924;52.134;4.666;2023-11-21T13:38:48;12.38;;;9.10;;
53036;SDS011;38924;52.134;4.666;2023-11-21T13:41:14;14.98;;;8.68;;
53036;SDS011;38924;52.134;4.666;2023-11-21T13:43:43;14.90;;;9.40;;
53036;SDS011;38924;52.134;4.666;2023-11-21T13:46:14;13.25;;;9.43;;
53036;SDS011;38924;52.134;4.666;2023-11-21T13:48:42;12.63;;;8.73;;
53036;SDS011;38924;52.134;4.666;2023-11-21T13:51:14;13.90;;;8.73;;
53036;SDS011;38924;52.134;4.666;2023-11-21T13:53:45;13.93;;;9.27;;
53036;SDS011;38924;52.134;4.666;2023-11-21T13:56:13;11.77;;;9.48;;
53036;SDS011;38924;52.134;4.666;2023-11-21T13:58:43;16.27;;;9.32;;
53036;SDS011;38924;52.134;4.666;2023-11-21T14:01:20;14.60;;;9.70;;
53036;SDS011;38924;52.134;4.666;2023-11-21T14:03:58;13.57;;;9.43;;
53036;SDS011;38924;52.134;4.666;2023-11-21T14:06:34;15.38;;;11.32;;
53036;SDS011;38924;52.134;4.666;2023-11-21T14:09:05;16.10;;;11.80;;
53036;SDS011;38924;52.134;4.666;2023-11-21T14:11:33;18.73;;;12.65;;
53036;SDS011;38924;52.134;4.666;2023-11-21T14:14:02;17.00;;;11.77;;
53036;SDS011;38924;52.134;4.666;2023-11-21T14:16:28;16.63;;;11.90;;
53036;SDS011;38924;52.134;4.666;2023-11-21T14:18:54;18.40;;;13.25;;
53036;SDS011;38924;52.134;4.666;2023-11-21T14:21:29;20.83;;;13.77;;
53036;SDS011;38924;52.134;4.666;2023-11-21T14:23:55;19.23;;;13.77;;
53036;SDS011;38924;52.134;4.666;2023-11-21T14:26:21;21.90;;;14.95;;
53036;SDS011;38924;52.134;4.666;2023-11-21T14:28:46;16.83;;;11.95;;
53036;SDS011;38924;52.134;4.666;2023-11-21T14:31:14;22.50;;;13.65;;
53036;SDS011;38924;52.134;4.666;2023-11-21T14:33:43;15.95;;;12.20;;
53036;SDS011;38924;52.134;4.666;2023-11-21T14:36:09;18.25;;;12.95;;
53036;SDS011;38924;52.134;4.666;2023-11-21T14:38:38;14.77;;;11.20;;
53036;SDS011;38924;52.134;4.666;2023-11-21T14:41:07;14.48;;;10.63;;
53036;SDS011;38924;52.134;4.666;2023-11-21T14:43:36;12.18;;;9.73;;
53036;SDS011;38924;52.134;4.666;2023-11-21T14:46:04;11.50;;;8.82;;
53036;SDS011;38924;52.134;4.666;2023-11-21T14:48:34;10.93;;;8.02;;
53036;SDS011;38924;52.134;4.666;2023-11-21T14:51:10;14.57;;;7.82;;
53036;SDS011;38924;52.134;4.666;2023-11-21T14:53:55;12.80;;;8.82;;